Main page
METAR-TAF:

METAR-TAF

Airports :

RNAS Yeovilton (HMS Heron)

Yeovilton, England

latitude: 51-00N, longitude: 002-38W, elevation: 23 m

Current weather observation

The report was made 43 minutes ago, at 03:50 UTC
Wind 3 kt from the East/Southeast
Temperature 13°C
Humidity 94%
Pressure 1020 hPa
Visibility: 4000 m
mist,

METAR: EGDY 180350Z AUTO 11003KT 4000 BR BKN120/// 13/12 Q1020

Time: 05:33 (04:33 UTC)

Forecast

The report was made 12 hours and 1 minutes ago, at 16:32 UTC
Forecast valid from 17 at 18 UTC to 18 at 03 UTC
Wind 7 kt from the South/Southwest
Visibility 10 km or more
Few clouds at a height of 2200 ft
Becoming
from 17 at 20 UTC to 17 at 22 UTC
Wind 3 kt from variable directions
Probability 30%
from 18 at 01 UTC to 18 at 03 UTC
Visibility: 7000 m
Few clouds at a height of 300 ft
mist,

TAF: EGDY 171632Z 1718/1803 21007KT 9999 FEW022 BECMG 1720/1722 VRB03KT PROB30 1801/1803 7000 BR FEW003

Weather observations and forecasts of more than 4000 airports (METAR and TAF reports).

The available stations are represented by yellow and red dots on the map.

Hover mouse over dot to see the name of the station.

Then click to see weather observations and forecasts.

To change the map : click on the green buttons with a black cross to zoom in, on the green button with a dash to zoom out, or on the green arrows for adjacent maps.


METAR-TAF: